createdAt,value
2018-04-26T00:00:10.524Z,18.67
2018-04-26T00:01:11.197Z,18.65
2018-04-26T00:02:10.893Z,18.67
2018-04-26T00:03:17.912Z,18.64
2018-04-26T00:04:10.641Z,18.63
2018-04-26T00:05:10.605Z,18.64
2018-04-26T00:06:10.998Z,18.65
2018-04-26T00:07:13.070Z,18.65
2018-04-26T00:08:10.597Z,18.65
2018-04-26T00:09:10.853Z,18.64
2018-04-26T00:10:10.738Z,18.63
2018-04-26T00:11:10.733Z,18.66
2018-04-26T00:12:10.917Z,18.65
2018-04-26T00:13:10.906Z,18.66
2018-04-26T00:14:10.547Z,18.65
2018-04-26T00:15:11.184Z,18.66
2018-04-26T00:16:10.580Z,18.63
2018-04-26T00:17:10.571Z,18.66
2018-04-26T00:18:10.480Z,18.66
2018-04-26T00:19:10.767Z,18.66
2018-04-26T00:20:10.912Z,18.64
2018-04-26T00:21:11.225Z,18.63
2018-04-26T00:22:10.712Z,18.64
2018-04-26T00:23:10.651Z,18.65
2018-04-26T00:24:10.864Z,18.64
2018-04-26T00:25:10.840Z,18.63
2018-04-26T00:26:10.978Z,18.64
2018-04-26T00:27:10.469Z,18.64
2018-04-26T00:28:10.615Z,18.62
2018-04-26T00:29:10.934Z,18.63
2018-04-26T00:30:11.108Z,18.63
2018-04-26T00:31:10.651Z,18.63
2018-04-26T00:32:11.117Z,18.63
2018-04-26T00:33:10.685Z,18.65
2018-04-26T00:34:10.490Z,18.63
2018-04-26T00:35:11.213Z,18.64
2018-04-26T00:36:10.762Z,18.64
2018-04-26T00:37:10.988Z,18.62
2018-04-26T00:38:10.603Z,18.62
2018-04-26T00:39:10.482Z,18.62
2018-04-26T00:40:13.041Z,18.63
2018-04-26T00:41:10.825Z,18.61
2018-04-26T00:42:10.649Z,18.62
2018-04-26T00:43:11.889Z,18.63
2018-04-26T00:44:12.880Z,18.63
2018-04-26T00:45:10.537Z,18.63
2018-04-26T00:46:10.749Z,18.64
2018-04-26T00:47:10.668Z,18.64
2018-04-26T00:48:11.690Z,18.62
2018-04-26T00:49:11.934Z,18.58
2018-04-26T00:50:11.068Z,18.59
2018-04-26T00:51:10.741Z,18.59
2018-04-26T00:52:11.316Z,18.61
2018-04-26T00:53:11.126Z,18.62
2018-04-26T00:54:11.083Z,18.63
2018-04-26T00:55:11.120Z,18.61
2018-04-26T00:56:10.625Z,18.62
2018-04-26T00:57:10.485Z,18.59
2018-04-26T00:58:10.875Z,18.57
2018-04-26T00:59:11.137Z,18.58
2018-04-26T01:00:10.885Z,18.58
2018-04-26T01:01:10.602Z,18.58
2018-04-26T01:02:10.813Z,18.62
2018-04-26T01:03:10.777Z,18.59
2018-04-26T01:04:10.471Z,18.59
2018-04-26T01:05:10.911Z,18.62
2018-04-26T01:06:11.272Z,18.59
2018-04-26T01:07:10.449Z,18.59
2018-04-26T01:08:10.481Z,18.62
2018-04-26T01:09:10.908Z,18.58
2018-04-26T01:10:10.733Z,18.58
2018-04-26T01:11:14.089Z,18.61
2018-04-26T01:12:10.572Z,18.61
2018-04-26T01:13:10.695Z,18.58
2018-04-26T01:14:10.662Z,18.58
2018-04-26T01:15:12.878Z,18.57
2018-04-26T01:16:15.617Z,18.57
2018-04-26T01:17:16.393Z,18.59
2018-04-26T01:18:10.489Z,18.58
2018-04-26T01:19:11.158Z,18.57
2018-04-26T01:20:11.900Z,18.61
2018-04-26T01:21:13.860Z,18.58
2018-04-26T01:22:10.529Z,18.59
2018-04-26T01:23:11.104Z,18.57
2018-04-26T01:24:10.630Z,18.58
2018-04-26T01:25:10.763Z,18.57
2018-04-26T01:26:10.997Z,18.58
2018-04-26T01:27:10.697Z,18.58
2018-04-26T01:28:11.726Z,18.56
2018-04-26T01:29:10.936Z,18.59
2018-04-26T01:30:12.411Z,18.61
2018-04-26T01:31:10.486Z,18.58
2018-04-26T01:32:10.569Z,18.59
2018-04-26T01:33:10.873Z,18.55
2018-04-26T01:34:10.883Z,18.56
2018-04-26T01:35:10.755Z,18.57
2018-04-26T01:36:11.866Z,18.56
2018-04-26T01:37:12.305Z,18.58
2018-04-26T01:38:10.483Z,18.58
2018-04-26T01:39:10.702Z,18.56
2018-04-26T01:40:10.981Z,18.57
2018-04-26T01:41:12.890Z,18.57
2018-04-26T01:42:12.183Z,18.56
2018-04-26T01:43:10.785Z,18.57
2018-04-26T01:44:10.792Z,18.56
2018-04-26T01:45:10.845Z,18.57
2018-04-26T01:46:11.418Z,18.57
2018-04-26T01:47:11.653Z,18.57
2018-04-26T01:48:11.496Z,18.56
2018-04-26T01:49:11.183Z,18.57
2018-04-26T01:50:10.942Z,18.57
2018-04-26T01:51:11.185Z,18.57
2018-04-26T01:52:13.114Z,18.56
2018-04-26T01:53:10.634Z,18.58
2018-04-26T01:54:10.373Z,18.55
2018-04-26T01:55:10.868Z,18.55
2018-04-26T01:56:11.364Z,18.57
2018-04-26T01:57:11.613Z,18.56
2018-04-26T01:58:10.844Z,18.55
2018-04-26T01:59:11.046Z,18.57
2018-04-26T02:00:10.461Z,18.55
2018-04-26T02:01:11.159Z,18.54
2018-04-26T02:02:13.223Z,18.55
2018-04-26T02:03:11.584Z,18.54
2018-04-26T02:04:10.623Z,18.55
2018-04-26T02:05:10.629Z,18.56
2018-04-26T02:06:10.788Z,18.56
2018-04-26T02:07:11.712Z,18.56
2018-04-26T02:08:12.480Z,18.56
2018-04-26T02:09:12.454Z,18.54
2018-04-26T02:10:10.595Z,18.53
2018-04-26T02:11:10.693Z,18.54
2018-04-26T02:12:10.716Z,18.53
2018-04-26T02:13:12.090Z,18.55
2018-04-26T02:14:14.165Z,18.54
2018-04-26T02:15:10.542Z,18.54
2018-04-26T02:16:11.106Z,18.53
2018-04-26T02:17:11.964Z,18.53
2018-04-26T02:18:10.660Z,18.54
2018-04-26T02:19:10.455Z,18.54
2018-04-26T02:20:10.975Z,18.55
2018-04-26T02:21:15.046Z,18.53
2018-04-26T02:22:10.706Z,18.54
2018-04-26T02:23:10.740Z,18.54
2018-04-26T02:24:10.743Z,18.53
2018-04-26T02:25:11.135Z,18.54
2018-04-26T02:26:14.078Z,18.54
2018-04-26T02:27:10.894Z,18.53
2018-04-26T02:28:11.098Z,18.54
2018-04-26T02:29:10.727Z,18.52
2018-04-26T02:30:11.386Z,18.53
2018-04-26T02:31:11.337Z,18.55
2018-04-26T02:32:21.555Z,18.53
2018-04-26T02:33:10.672Z,18.55
2018-04-26T02:34:11.060Z,18.53
2018-04-26T02:35:10.928Z,18.53
2018-04-26T02:36:10.629Z,18.52
2018-04-26T02:37:11.079Z,18.53
2018-04-26T02:38:10.568Z,18.53
2018-04-26T02:39:11.219Z,18.53
2018-04-26T02:40:11.304Z,18.52
2018-04-26T02:41:10.663Z,18.51
2018-04-26T02:42:11.539Z,18.52
2018-04-26T02:43:10.950Z,18.52
2018-04-26T02:44:10.535Z,18.53
2018-04-26T02:45:10.907Z,18.52
2018-04-26T02:46:11.108Z,18.52
2018-04-26T02:47:10.482Z,18.53
2018-04-26T02:48:10.628Z,18.52
2018-04-26T02:49:11.749Z,18.52
2018-04-26T02:50:10.939Z,18.52
2018-04-26T02:51:10.927Z,18.53
2018-04-26T02:52:11.226Z,18.51
2018-04-26T02:53:11.299Z,18.52
2018-04-26T02:54:11.021Z,18.52
2018-04-26T02:55:10.813Z,18.52
2018-04-26T02:56:10.634Z,18.52
2018-04-26T02:57:10.564Z,18.52
2018-04-26T02:58:10.504Z,18.5
2018-04-26T02:59:10.934Z,18.51
2018-04-26T03:00:10.512Z,18.51
2018-04-26T03:01:11.567Z,18.51
2018-04-26T03:02:11.430Z,18.53
2018-04-26T03:03:10.785Z,18.52
2018-04-26T03:04:10.596Z,18.53
2018-04-26T03:05:11.281Z,18.52
2018-04-26T03:06:12.432Z,18.51
2018-04-26T03:07:15.893Z,18.53
2018-04-26T03:08:11.246Z,18.53
2018-04-26T03:09:10.520Z,18.52
2018-04-26T03:10:11.053Z,18.49
2018-04-26T03:11:11.364Z,18.49
2018-04-26T03:12:11.424Z,18.51
2018-04-26T03:13:10.703Z,18.52
2018-04-26T03:14:10.881Z,18.51
2018-04-26T03:15:11.127Z,18.51
2018-04-26T03:16:31.723Z,18.5
2018-04-26T03:17:10.399Z,18.51
2018-04-26T03:18:10.773Z,18.5
2018-04-26T03:19:10.682Z,18.5
2018-04-26T03:20:11.095Z,18.53
2018-04-26T03:21:11.025Z,18.5
2018-04-26T03:22:11.087Z,18.49
2018-04-26T03:23:10.620Z,18.52
2018-04-26T03:24:10.908Z,18.51
2018-04-26T03:25:12.502Z,18.5
2018-04-26T03:26:10.521Z,18.51
2018-04-26T03:27:14.074Z,18.51
2018-04-26T03:28:11.023Z,18.49
2018-04-26T03:29:10.462Z,18.51
2018-04-26T03:30:10.580Z,18.5
2018-04-26T03:31:11.188Z,18.5
2018-04-26T03:32:12.036Z,18.51
2018-04-26T03:33:10.894Z,18.49
2018-04-26T03:34:10.688Z,18.49
2018-04-26T03:35:13.019Z,18.51
2018-04-26T03:36:10.763Z,18.5
2018-04-26T03:37:10.517Z,18.49
2018-04-26T03:38:10.831Z,18.49
2018-04-26T03:39:11.314Z,18.48
2018-04-26T03:40:10.678Z,18.49
2018-04-26T03:41:11.978Z,18.5
2018-04-26T03:42:12.571Z,18.5
2018-04-26T03:43:11.611Z,18.49
2018-04-26T03:44:10.686Z,18.48
2018-04-26T03:45:10.436Z,18.48
2018-04-26T03:46:10.858Z,18.47
2018-04-26T03:47:11.321Z,18.48
2018-04-26T03:48:10.869Z,18.47
2018-04-26T03:49:10.778Z,18.48
2018-04-26T03:50:10.915Z,18.5
2018-04-26T03:51:10.936Z,18.48
2018-04-26T03:52:10.872Z,18.49
2018-04-26T03:53:10.645Z,18.49
2018-04-26T03:54:11.144Z,18.48
2018-04-26T03:55:10.679Z,18.47
2018-04-26T03:56:10.947Z,18.49
2018-04-26T03:57:10.385Z,18.48
2018-04-26T03:58:10.469Z,18.49
2018-04-26T03:59:11.521Z,18.5
2018-04-26T04:00:11.062Z,18.47
2018-04-26T04:01:10.767Z,18.47
2018-04-26T04:02:10.661Z,18.49
2018-04-26T04:03:11.051Z,18.49
2018-04-26T04:04:10.716Z,18.49
2018-04-26T04:05:11.301Z,18.49
2018-04-26T04:06:11.448Z,18.49
2018-04-26T04:07:10.590Z,18.48
2018-04-26T04:08:14.667Z,18.49
2018-04-26T04:09:10.450Z,18.49
2018-04-26T04:10:10.500Z,18.48
2018-04-26T04:11:11.074Z,18.5
2018-04-26T04:12:23.887Z,18.48
2018-04-26T04:13:10.495Z,18.47
2018-04-26T04:14:11.692Z,18.49
2018-04-26T04:15:10.622Z,18.48
2018-04-26T04:16:12.988Z,18.48
2018-04-26T04:17:10.779Z,18.49
2018-04-26T04:18:11.222Z,18.48
2018-04-26T04:19:11.013Z,18.48
2018-04-26T04:20:10.759Z,18.49
2018-04-26T04:21:18.937Z,18.47
2018-04-26T04:22:13.118Z,18.47
2018-04-26T04:23:11.115Z,18.49
2018-04-26T04:24:10.542Z,18.48
2018-04-26T04:25:16.873Z,18.49
2018-04-26T04:26:10.379Z,18.48
2018-04-26T04:27:14.030Z,18.48
2018-04-26T04:28:10.821Z,18.47
2018-04-26T04:29:11.705Z,18.48
2018-04-26T04:30:10.464Z,18.48
2018-04-26T04:31:10.570Z,18.48
2018-04-26T04:32:11.607Z,18.49
2018-04-26T04:33:10.778Z,18.47
2018-04-26T04:34:11.265Z,18.47
2018-04-26T04:35:11.039Z,18.48
2018-04-26T04:36:11.485Z,18.48
2018-04-26T04:37:10.760Z,18.49
2018-04-26T04:38:11.491Z,18.47
2018-04-26T04:39:11.250Z,18.5
2018-04-26T04:40:10.630Z,18.49
2018-04-26T04:41:10.590Z,18.49
2018-04-26T04:42:10.463Z,18.48
2018-04-26T04:43:11.014Z,18.49
2018-04-26T04:44:10.863Z,18.48
2018-04-26T04:45:11.861Z,18.49
2018-04-26T04:46:10.645Z,18.5
2018-04-26T04:47:10.562Z,18.49
2018-04-26T04:48:10.888Z,18.47
2018-04-26T04:49:10.644Z,18.47
2018-04-26T04:50:11.242Z,18.47
2018-04-26T04:51:22.581Z,18.47
2018-04-26T04:52:10.607Z,18.48
2018-04-26T04:53:10.962Z,18.47
2018-04-26T04:54:13.019Z,18.5
2018-04-26T04:55:10.746Z,18.47
2018-04-26T04:56:11.186Z,18.48
2018-04-26T04:57:10.938Z,18.47
2018-04-26T04:58:10.726Z,18.47
2018-04-26T04:59:11.379Z,18.49
2018-04-26T05:00:11.462Z,18.48
2018-04-26T05:01:10.617Z,18.48
2018-04-26T05:02:10.889Z,18.47
2018-04-26T05:03:19.928Z,18.47
2018-04-26T05:04:11.354Z,18.47
2018-04-26T05:05:10.781Z,18.49
2018-04-26T05:06:10.517Z,18.48
2018-04-26T05:07:11.140Z,18.47
2018-04-26T05:08:10.795Z,18.48
2018-04-26T05:09:10.703Z,18.49
2018-04-26T05:10:11.146Z,18.49
2018-04-26T05:11:11.000Z,18.47
2018-04-26T05:12:10.610Z,18.48
2018-04-26T05:13:11.170Z,18.48
2018-04-26T05:14:16.725Z,18.48
2018-04-26T05:15:17.424Z,18.48
2018-04-26T05:16:11.321Z,18.48
2018-04-26T05:17:10.427Z,18.5
2018-04-26T05:18:10.657Z,18.46
2018-04-26T05:19:10.926Z,18.46
2018-04-26T05:20:10.417Z,18.48
2018-04-26T05:21:11.460Z,18.49
2018-04-26T05:22:10.659Z,18.48
2018-04-26T05:23:12.010Z,18.48
2018-04-26T05:24:10.902Z,18.47
2018-04-26T05:25:10.487Z,18.46
2018-04-26T05:26:11.005Z,18.47
2018-04-26T05:27:34.932Z,18.46
2018-04-26T05:28:10.996Z,18.47
2018-04-26T05:29:10.750Z,18.48
2018-04-26T05:30:11.174Z,18.47
2018-04-26T05:31:10.547Z,18.44
2018-04-26T05:32:11.380Z,18.48
2018-04-26T05:33:11.007Z,18.48
2018-04-26T05:34:10.613Z,18.49
2018-04-26T05:35:10.742Z,18.5
2018-04-26T05:36:10.512Z,18.49
2018-04-26T05:37:10.650Z,18.52
2018-04-26T05:38:10.871Z,18.53
2018-04-26T05:39:10.573Z,18.53
2018-04-26T05:40:12.040Z,18.54
2018-04-26T05:41:11.598Z,18.53
2018-04-26T05:42:10.508Z,18.54
2018-04-26T05:43:10.830Z,18.54
2018-04-26T05:44:10.515Z,18.55
2018-04-26T05:45:12.036Z,18.55
2018-04-26T05:46:11.316Z,18.53
2018-04-26T05:47:13.504Z,18.56
2018-04-26T05:48:10.673Z,18.56
2018-04-26T05:49:10.561Z,18.57
2018-04-26T05:50:10.467Z,18.59
2018-04-26T05:51:11.222Z,18.58
2018-04-26T05:52:11.414Z,18.56
2018-04-26T05:53:13.174Z,18.57
2018-04-26T05:54:11.131Z,18.57
2018-04-26T05:55:11.311Z,18.58
2018-04-26T05:56:11.388Z,18.62
2018-04-26T05:57:11.272Z,18.58
2018-04-26T05:58:10.993Z,18.58
2018-04-26T05:59:10.523Z,18.57
2018-04-26T06:00:11.161Z,18.58
2018-04-26T06:01:10.608Z,18.55
2018-04-26T06:02:10.813Z,18.57
2018-04-26T06:03:11.187Z,18.55
2018-04-26T06:04:10.732Z,18.55
2018-04-26T06:05:10.561Z,18.54
2018-04-26T06:06:13.092Z,18.55
2018-04-26T06:07:12.744Z,18.55
2018-04-26T06:08:11.210Z,18.54
2018-04-26T06:09:11.384Z,18.53
2018-04-26T06:10:11.664Z,18.54
2018-04-26T06:11:12.024Z,18.55
2018-04-26T06:12:10.557Z,18.55
2018-04-26T06:13:12.196Z,18.52
2018-04-26T06:14:10.591Z,18.56
2018-04-26T06:15:10.693Z,18.53
2018-04-26T06:16:10.964Z,18.54
2018-04-26T06:17:12.738Z,18.53
2018-04-26T06:18:10.302Z,18.53
2018-04-26T06:19:10.697Z,18.53
2018-04-26T06:20:11.326Z,18.54
2018-04-26T06:21:13.158Z,18.53
2018-04-26T06:22:11.466Z,18.51
2018-04-26T06:23:11.741Z,18.53
2018-04-26T06:24:10.948Z,18.51
2018-04-26T06:25:12.434Z,18.51
2018-04-26T06:26:11.037Z,18.51
2018-04-26T06:27:17.202Z,18.52
2018-04-26T06:28:26.557Z,18.5
2018-04-26T06:29:11.670Z,18.53
2018-04-26T06:30:13.433Z,18.51
2018-04-26T06:31:12.384Z,18.48
2018-04-26T06:32:10.879Z,18.5
2018-04-26T06:33:12.688Z,18.5
2018-04-26T06:34:11.208Z,18.5
2018-04-26T06:35:12.558Z,18.5
2018-04-26T06:36:10.524Z,18.49
2018-04-26T06:37:10.874Z,18.5
2018-04-26T06:38:11.290Z,18.5
2018-04-26T06:39:11.752Z,18.51
2018-04-26T06:40:12.496Z,18.5
2018-04-26T06:41:12.867Z,18.51
2018-04-26T06:42:11.491Z,18.51
2018-04-26T06:43:49.074Z,18.49
2018-04-26T06:49:49.644Z,18.49
2018-04-26T06:50:50.107Z,18.5
2018-04-26T06:51:50.036Z,18.48
2018-04-26T06:52:51.133Z,18.47
2018-04-26T06:53:49.569Z,18.48
2018-04-26T06:54:49.148Z,18.49
2018-04-26T06:55:49.100Z,18.49
2018-04-26T06:56:50.282Z,18.48
2018-04-26T06:57:49.107Z,18.5
2018-04-26T06:58:48.840Z,18.48
2018-04-26T06:59:50.029Z,18.49
2018-04-26T07:00:49.959Z,18.47
2018-04-26T07:01:52.448Z,18.49
2018-04-26T07:02:55.588Z,18.48
2018-04-26T07:03:49.127Z,18.47
2018-04-26T07:04:50.089Z,18.48
2018-04-26T07:05:54.093Z,18.48
2018-04-26T07:06:51.985Z,18.48
2018-04-26T07:07:49.155Z,18.47
2018-04-26T07:08:48.864Z,18.49
2018-04-26T07:09:50.124Z,18.47
2018-04-26T07:10:49.545Z,18.49
2018-04-26T07:11:50.264Z,18.48
2018-04-26T07:12:54.795Z,18.47
2018-04-26T07:13:49.599Z,18.48
2018-04-26T07:14:49.872Z,18.48
2018-04-26T07:15:49.481Z,18.46
2018-04-26T07:16:49.908Z,18.49
2018-04-26T07:17:49.128Z,18.48
2018-04-26T07:18:49.947Z,18.46
2018-04-26T07:19:50.166Z,18.44
2018-04-26T07:20:49.294Z,18.47
2018-04-26T07:21:50.623Z,18.44
2018-04-26T07:22:48.989Z,18.47
2018-04-26T07:23:52.481Z,18.48
2018-04-26T07:24:48.928Z,18.46
2018-04-26T07:25:49.395Z,18.47
2018-04-26T07:26:48.642Z,18.46
2018-04-26T07:27:48.672Z,18.48
2018-04-26T07:28:48.770Z,18.47
2018-04-26T07:29:48.826Z,18.48
2018-04-26T07:30:48.901Z,18.47
2018-04-26T07:31:48.870Z,18.44
2018-04-26T07:32:48.943Z,18.48
2018-04-26T07:33:48.893Z,18.47
2018-04-26T07:34:49.064Z,18.46
2018-04-26T07:35:48.707Z,18.47
2018-04-26T07:36:48.657Z,18.44
2018-04-26T07:37:48.797Z,18.43
2018-04-26T07:38:50.691Z,18.44
2018-04-26T07:39:50.163Z,18.46
2018-04-26T07:40:48.867Z,18.47
2018-04-26T07:41:48.707Z,18.48
2018-04-26T07:42:48.692Z,18.44
2018-04-26T07:43:48.823Z,18.44
2018-04-26T07:44:49.046Z,18.48
2018-04-26T07:45:48.848Z,18.47
2018-04-26T07:46:48.809Z,18.47
2018-04-26T07:47:48.761Z,18.46
2018-04-26T07:48:48.691Z,18.43
2018-04-26T07:49:48.824Z,18.44
2018-04-26T07:50:48.894Z,18.47
2018-04-26T07:51:48.790Z,18.46
2018-04-26T07:52:48.950Z,18.44
2018-04-26T07:53:48.872Z,18.46
2018-04-26T07:54:48.680Z,18.44
2018-04-26T07:55:48.698Z,18.44
2018-04-26T07:56:48.728Z,18.44
2018-04-26T07:57:48.848Z,18.46
2018-04-26T07:58:50.747Z,18.44
2018-04-26T08:05:30.051Z,18.43
2018-04-26T08:06:30.891Z,18.46
2018-04-26T08:12:50.789Z,18.43
2018-04-26T08:13:50.876Z,18.41
2018-04-26T08:14:52.318Z,18.42
2018-04-26T08:15:51.286Z,18.41
2018-04-26T08:16:51.669Z,18.43
2018-04-26T08:17:52.073Z,18.42
2018-04-26T08:18:51.021Z,18.42
2018-04-26T08:19:51.611Z,18.43
2018-04-26T08:20:54.211Z,18.43
2018-04-26T08:21:53.696Z,18.4
2018-04-26T08:22:50.921Z,18.42
2018-04-26T08:23:50.984Z,18.41
2018-04-26T08:24:51.329Z,18.43
2018-04-26T08:25:50.963Z,18.44
2018-04-26T08:26:50.905Z,18.43
2018-04-26T08:27:50.869Z,18.4
2018-04-26T08:28:50.824Z,18.42
2018-04-26T08:29:50.709Z,18.41
2018-04-26T08:30:50.931Z,18.41
2018-04-26T08:31:50.720Z,18.43
2018-04-26T08:32:50.927Z,18.4
2018-04-26T08:33:50.801Z,18.4
2018-04-26T08:34:50.852Z,18.41
2018-04-26T08:35:50.732Z,18.43
2018-04-26T08:36:51.024Z,18.41
2018-04-26T08:37:50.796Z,18.42
2018-04-26T08:38:50.871Z,18.42
2018-04-26T08:39:50.899Z,18.42
2018-04-26T08:40:50.890Z,18.43
2018-04-26T08:41:50.774Z,18.41
2018-04-26T08:42:50.860Z,18.42
2018-04-26T08:43:50.889Z,18.43
2018-04-26T08:44:50.789Z,18.41
2018-04-26T08:45:50.830Z,18.41
2018-04-26T08:46:50.875Z,18.41
2018-04-26T08:47:50.743Z,18.39
2018-04-26T08:48:50.967Z,18.39
2018-04-26T08:49:50.830Z,18.41
2018-04-26T08:50:50.852Z,18.4
2018-04-26T08:51:50.759Z,18.41
2018-04-26T08:52:50.842Z,18.4
2018-04-26T08:53:50.902Z,18.4
2018-04-26T08:54:50.783Z,18.41
2018-04-26T08:55:50.770Z,18.4
2018-04-26T08:56:50.955Z,18.4
2018-04-26T08:57:50.886Z,18.39
2018-04-26T08:58:50.935Z,18.42
2018-04-26T08:59:51.218Z,18.39
2018-04-26T09:00:50.754Z,18.38
2018-04-26T09:01:50.704Z,18.41
2018-04-26T09:02:50.889Z,18.4
2018-04-26T09:03:50.737Z,18.39
2018-04-26T09:04:50.880Z,18.41
2018-04-26T09:05:50.778Z,18.39
2018-04-26T09:06:51.370Z,18.41
2018-04-26T09:07:50.915Z,18.4
2018-04-26T09:08:50.749Z,18.39
2018-04-26T09:09:50.762Z,18.4
2018-04-26T09:10:50.854Z,18.4
2018-04-26T09:11:50.707Z,18.4
2018-04-26T09:12:50.859Z,18.4
2018-04-26T09:13:50.767Z,18.42
2018-04-26T09:14:50.898Z,18.39
2018-04-26T09:15:51.176Z,18.39
2018-04-26T09:16:50.884Z,18.39
2018-04-26T09:17:50.766Z,18.4
2018-04-26T09:18:50.827Z,18.4
2018-04-26T09:19:50.859Z,18.4
2018-04-26T09:20:50.842Z,18.39
2018-04-26T09:21:50.928Z,18.38
2018-04-26T09:22:50.869Z,18.39
2018-04-26T09:23:50.831Z,18.4
2018-04-26T09:24:50.743Z,18.39
2018-04-26T09:25:50.872Z,18.4
2018-04-26T09:26:50.741Z,18.4
2018-04-26T09:27:50.869Z,18.39
2018-04-26T09:28:50.731Z,18.39
2018-04-26T09:29:50.701Z,18.4
2018-04-26T09:30:50.847Z,18.39
2018-04-26T09:31:50.723Z,18.4
2018-04-26T09:32:50.771Z,18.38
2018-04-26T09:33:50.850Z,18.37
2018-04-26T09:34:50.962Z,18.41
2018-04-26T09:35:50.732Z,18.38
2018-04-26T09:36:51.134Z,18.37
2018-04-26T09:37:50.914Z,18.39
2018-04-26T09:38:50.800Z,18.4
2018-04-26T09:39:50.838Z,18.39
2018-04-26T09:40:50.698Z,18.38
2018-04-26T09:41:50.773Z,18.39
2018-04-26T09:42:50.885Z,18.36
2018-04-26T09:43:50.852Z,18.39
2018-04-26T09:44:50.704Z,18.37
2018-04-26T09:45:50.902Z,18.36
2018-04-26T09:46:51.303Z,18.41
2018-04-26T09:47:50.889Z,18.36
2018-04-26T09:48:50.777Z,18.38
2018-04-26T09:49:50.851Z,18.41
2018-04-26T09:50:50.771Z,18.36
2018-04-26T09:51:50.767Z,18.37
2018-04-26T09:52:50.853Z,18.39
2018-04-26T09:53:50.737Z,18.39
2018-04-26T09:54:50.784Z,18.39
2018-04-26T09:55:50.906Z,18.39
2018-04-26T09:56:50.900Z,18.37
2018-04-26T09:57:51.902Z,18.37
2018-04-26T09:58:50.692Z,18.38
2018-04-26T09:59:50.919Z,18.36
2018-04-26T10:00:50.826Z,18.37
2018-04-26T10:01:52.867Z,18.39
2018-04-26T10:02:50.939Z,18.37
2018-04-26T10:03:50.995Z,18.38
2018-04-26T10:04:51.039Z,18.38
2018-04-26T10:05:51.234Z,18.38
2018-04-26T10:06:50.991Z,18.37
2018-04-26T10:07:50.964Z,18.39
2018-04-26T10:08:51.300Z,18.37
2018-04-26T10:09:51.017Z,18.37
2018-04-26T10:10:51.008Z,18.39
2018-04-26T10:11:50.877Z,18.39
2018-04-26T10:12:51.109Z,18.37
2018-04-26T10:13:51.038Z,18.39
2018-04-26T10:14:50.922Z,18.37
2018-04-26T10:15:51.119Z,18.37
2018-04-26T10:16:50.996Z,18.38
2018-04-26T10:17:50.982Z,18.39
2018-04-26T10:18:50.949Z,18.36
2018-04-26T10:19:51.012Z,18.38
2018-04-26T10:20:50.943Z,18.37
2018-04-26T10:21:50.863Z,18.35
2018-04-26T10:22:51.082Z,18.38
2018-04-26T10:23:51.068Z,18.39
2018-04-26T10:24:50.882Z,18.37
2018-04-26T10:25:51.018Z,18.38
2018-04-26T10:26:50.891Z,18.37
2018-04-26T10:27:51.261Z,18.35
2018-04-26T10:28:50.849Z,18.39
2018-04-26T10:29:51.000Z,18.37
2018-04-26T10:30:50.894Z,18.36
2018-04-26T10:31:50.736Z,18.38
2018-04-26T10:32:50.928Z,18.38
2018-04-26T10:33:50.790Z,18.37
2018-04-26T10:34:50.891Z,18.37
2018-04-26T10:35:50.935Z,18.37
2018-04-26T10:36:51.036Z,18.36
2018-04-26T10:37:50.937Z,18.38
2018-04-26T10:38:51.079Z,18.38
2018-04-26T10:39:50.920Z,18.38
2018-04-26T10:40:50.930Z,18.4
2018-04-26T10:41:50.884Z,18.41
2018-04-26T10:42:50.971Z,18.42
2018-04-26T10:43:50.801Z,18.44
2018-04-26T10:44:50.795Z,18.42
2018-04-26T10:45:51.144Z,18.43
2018-04-26T10:46:50.796Z,18.49
2018-04-26T10:47:51.137Z,18.46
2018-04-26T10:48:50.796Z,18.47
2018-04-26T10:49:51.218Z,18.53
2018-04-26T10:50:51.192Z,18.53
2018-04-26T10:51:50.743Z,18.54
2018-04-26T10:52:51.345Z,18.54
2018-04-26T10:53:51.256Z,18.53
2018-04-26T10:54:51.313Z,18.52
2018-04-26T10:55:50.784Z,18.57
2018-04-26T10:56:51.324Z,18.56
2018-04-26T10:57:50.895Z,18.55
2018-04-26T10:58:50.962Z,18.57
2018-04-26T10:59:50.879Z,18.57
2018-04-26T11:00:50.980Z,18.56
2018-04-26T11:01:50.749Z,18.58
2018-04-26T11:02:51.073Z,18.61
2018-04-26T11:03:51.128Z,18.59
2018-04-26T11:04:50.971Z,18.63
2018-04-26T11:05:50.886Z,18.63
2018-04-26T11:06:50.916Z,18.64
2018-04-26T11:07:51.014Z,18.72
2018-04-26T11:08:50.976Z,18.7
2018-04-26T11:09:50.989Z,18.7
2018-04-26T11:10:51.041Z,18.7
2018-04-26T11:11:50.774Z,18.69
2018-04-26T11:12:51.206Z,18.69
2018-04-26T11:13:50.907Z,18.7
2018-04-26T11:14:51.013Z,18.7
2018-04-26T11:15:50.803Z,18.71
2018-04-26T11:16:51.077Z,18.73
2018-04-26T11:17:51.162Z,18.72
2018-04-26T11:18:51.045Z,18.73
2018-04-26T11:19:50.980Z,18.74
2018-04-26T11:20:51.024Z,18.77
2018-04-26T11:21:50.734Z,18.76
2018-04-26T11:22:51.031Z,18.77
2018-04-26T11:23:50.945Z,18.77
2018-04-26T11:24:51.063Z,18.81
2018-04-26T11:25:51.171Z,18.84
2018-04-26T11:26:51.099Z,18.85
2018-04-26T11:27:50.867Z,18.87
2018-04-26T11:28:51.067Z,18.88
2018-04-26T11:29:51.002Z,18.85
2018-04-26T11:30:51.068Z,18.86
2018-04-26T11:31:50.807Z,18.89
2018-04-26T11:32:51.144Z,18.91
2018-04-26T11:33:50.922Z,18.91
2018-04-26T11:34:51.109Z,18.93
2018-04-26T11:35:51.538Z,18.91
2018-04-26T11:36:50.833Z,18.89
2018-04-26T11:37:50.941Z,18.93
2018-04-26T11:38:50.982Z,18.91
2018-04-26T11:39:50.908Z,18.89
2018-04-26T11:40:50.862Z,18.93
2018-04-26T11:41:50.796Z,18.93
2018-04-26T11:42:50.899Z,18.93
2018-04-26T11:43:51.173Z,18.93
2018-04-26T11:44:50.968Z,18.92
2018-04-26T11:45:51.050Z,18.94
2018-04-26T11:46:50.862Z,18.94
2018-04-26T11:47:50.740Z,18.93
2018-04-26T11:48:51.040Z,18.94
2018-04-26T11:49:50.919Z,18.94
2018-04-26T11:50:50.976Z,18.96
2018-04-26T11:51:50.856Z,18.95
2018-04-26T11:52:51.054Z,18.96
2018-04-26T11:53:51.038Z,18.96
2018-04-26T11:54:51.288Z,18.98
2018-04-26T11:55:50.818Z,18.98
2018-04-26T11:56:50.962Z,18.95
2018-04-26T11:57:50.884Z,18.97
2018-04-26T11:58:50.836Z,18.97
2018-04-26T11:59:51.452Z,18.94
2018-04-26T12:00:51.011Z,18.96
2018-04-26T12:01:50.831Z,18.99
2018-04-26T12:02:53.383Z,18.98
2018-04-26T12:03:51.079Z,18.98
2018-04-26T12:04:50.910Z,18.98
2018-04-26T12:05:51.026Z,18.98
2018-04-26T12:06:50.958Z,19
2018-04-26T12:07:50.964Z,19.01
2018-04-26T12:08:50.809Z,18.98
2018-04-26T12:09:50.838Z,19.01
2018-04-26T12:10:50.972Z,19.07
2018-04-26T12:11:50.842Z,19.01
2018-04-26T12:12:51.005Z,19
2018-04-26T12:13:50.967Z,19.01
2018-04-26T12:14:50.868Z,19.01
2018-04-26T12:15:51.031Z,18.98
2018-04-26T12:16:50.941Z,18.99
2018-04-26T12:17:50.765Z,18.96
2018-04-26T12:18:50.984Z,18.94
2018-04-26T12:19:51.090Z,18.96
2018-04-26T12:20:50.951Z,18.95
2018-04-26T12:21:50.806Z,18.94
2018-04-26T12:22:50.740Z,18.94
2018-04-26T12:23:50.890Z,18.92
2018-04-26T12:24:51.102Z,18.92
2018-04-26T12:25:50.847Z,18.88
2018-04-26T12:26:50.972Z,18.89
2018-04-26T12:27:51.021Z,18.87
2018-04-26T12:28:50.849Z,18.88
2018-04-26T12:29:50.960Z,18.87
2018-04-26T12:30:50.898Z,18.86
2018-04-26T12:31:50.673Z,18.85
2018-04-26T12:32:51.003Z,18.85
2018-04-26T12:33:50.996Z,18.84
2018-04-26T12:34:50.896Z,18.83
2018-04-26T12:35:51.055Z,18.83
2018-04-26T12:36:50.803Z,18.83
2018-04-26T12:37:51.037Z,18.82
2018-04-26T12:38:50.943Z,18.8
2018-04-26T12:39:50.894Z,18.83
2018-04-26T12:40:50.821Z,18.83
2018-04-26T12:41:50.969Z,18.79
2018-04-26T12:42:51.047Z,18.78
2018-04-26T12:43:50.987Z,18.78
2018-04-26T12:44:50.996Z,18.79
2018-04-26T12:45:50.911Z,18.77
2018-04-26T12:46:50.845Z,18.78
2018-04-26T12:47:51.005Z,18.73
2018-04-26T12:48:50.923Z,18.76
2018-04-26T12:49:51.017Z,18.77
2018-04-26T12:50:50.725Z,18.72
2018-04-26T12:51:50.905Z,18.76
2018-04-26T12:52:50.969Z,18.74
2018-04-26T12:53:50.948Z,18.73
2018-04-26T12:54:50.955Z,18.73
2018-04-26T12:55:50.975Z,18.72
2018-04-26T12:56:50.929Z,18.72
2018-04-26T12:57:50.918Z,18.72
2018-04-26T12:58:50.899Z,18.72
2018-04-26T12:59:50.855Z,18.7
2018-04-26T13:00:51.076Z,18.7
2018-04-26T13:01:51.181Z,18.69
2018-04-26T13:02:50.944Z,18.68
2018-04-26T13:03:51.004Z,18.67
2018-04-26T13:04:51.393Z,18.68
2018-04-26T13:05:51.000Z,18.68
2018-04-26T13:06:50.818Z,18.69
2018-04-26T13:07:51.128Z,18.69
2018-04-26T13:08:50.916Z,18.68
2018-04-26T13:09:50.920Z,18.7
2018-04-26T13:10:51.191Z,18.71